Time;durP1;ratioP1;P1;durP2;ratioP2;P2;SDS_P1;SDS_P2;PMS_P1;PMS_P2;Temp;Humidity;BMP_temperature;BMP_pressure;BME280_temperature;BME280_humidity;BME280_pressure;Samples;Min_cycle;Max_cycle;Signal;HPM_P1;HPM_P2
2023/10/01 00:00:11;;;;;;;20.15;12.05;;;13.40;76.40;;;;;;5057539;28;20474;-85
2023/10/01 00:02:37;;;;;;;24.75;12.50;;;13.20;77.00;;;;;;5057961;28;20051;-85
2023/10/01 00:05:05;;;;;;;20.55;11.85;;;13.30;76.90;;;;;;5057398;28;20047;-85
2023/10/01 00:07:31;;;;;;;22.15;13.70;;;13.20;76.80;;;;;;5056991;28;20427;-86
2023/10/01 00:09:56;;;;;;;19.98;11.93;;;13.20;76.90;;;;;;5057323;28;20017;-84
2023/10/01 00:12:23;;;;;;;21.58;13.05;;;13.10;77.00;;;;;;5057071;28;20056;-85
2023/10/01 00:14:52;;;;;;;23.15;13.20;;;13.20;76.70;;;;;;5057249;28;20029;-86
2023/10/01 00:17:18;;;;;;;22.45;13.10;;;13.20;76.60;;;;;;5056942;28;20063;-85
2023/10/01 00:19:45;;;;;;;22.88;12.43;;;13.20;76.70;;;;;;5056925;28;20492;-85
2023/10/01 00:22:10;;;;;;;22.20;12.38;;;13.20;76.90;;;;;;5056270;28;20025;-82
2023/10/01 00:24:36;;;;;;;21.92;13.27;;;13.20;76.80;;;;;;5056582;28;20074;-84
2023/10/01 00:27:02;;;;;;;18.25;11.57;;;13.30;76.80;;;;;;5056586;28;20029;-86
2023/10/01 00:29:28;;;;;;;22.13;12.32;;;13.20;76.80;;;;;;5057063;28;20017;-85
2023/10/01 00:31:55;;;;;;;22.40;12.68;;;13.30;76.70;;;;;;5056536;28;20017;-85
2023/10/01 00:34:20;;;;;;;22.00;11.43;;;13.30;76.90;;;;;;5056703;28;20062;-86
2023/10/01 00:36:46;;;;;;;19.20;11.27;;;13.30;76.90;;;;;;5056787;28;20436;-87
2023/10/01 00:39:12;;;;;;;19.27;11.85;;;13.30;76.70;;;;;;5057788;28;20060;-86
2023/10/01 00:41:37;;;;;;;20.80;12.27;;;13.30;76.50;;;;;;5060641;28;20485;-88
2023/10/01 00:44:03;;;;;;;19.00;11.75;;;13.40;76.30;;;;;;5061177;28;20032;-87
2023/10/01 00:46:29;;;;;;;18.95;11.73;;;13.30;76.30;;;;;;5060760;28;20048;-87
2023/10/01 00:48:56;;;;;;;21.63;12.38;;;13.30;76.40;;;;;;5058505;28;20017;-87
2023/10/01 00:51:21;;;;;;;19.08;11.70;;;13.20;76.60;;;;;;5041533;28;20102;-88
2023/10/01 00:53:49;;;;;;;24.33;12.65;;;13.20;76.60;;;;;;5056520;28;20028;-84
2023/10/01 00:56:15;;;;;;;20.70;12.07;;;13.10;76.80;;;;;;5055731;28;20039;-83
2023/10/01 00:58:40;;;;;;;20.90;12.05;;;13.00;77.10;;;;;;5055447;28;20028;-84
2023/10/01 01:01:08;;;;;;;19.08;11.70;;;13.10;77.40;;;;;;5055754;28;20021;-84
2023/10/01 01:03:35;;;;;;;20.38;12.77;;;13.10;77.40;;;;;;5055599;28;20025;-84
2023/10/01 01:08:33;;;;;;;21.20;12.52;;;13.00;77.50;;;;;;5056150;28;20052;-85
2023/10/01 01:11:03;;;;;;;21.70;12.27;;;13.00;77.70;;;;;;5055926;28;20075;-84
2023/10/01 01:13:30;;;;;;;20.50;12.15;;;12.90;78.10;;;;;;5055267;28;20393;-84
2023/10/01 01:15:57;;;;;;;20.25;12.10;;;12.90;78.10;;;;;;5055531;28;20366;-85
2023/10/01 01:18:27;;;;;;;18.63;11.13;;;12.90;78.00;;;;;;5055373;28;20060;-82
2023/10/01 01:21:05;;;;;;;19.95;11.98;;;12.90;77.90;;;;;;5055452;28;20018;-84
2023/10/01 01:23:31;;;;;;;20.30;12.00;;;12.90;77.70;;;;;;5055453;28;20064;-83
2023/10/01 01:25:57;;;;;;;20.00;11.80;;;12.90;77.70;;;;;;5055377;28;20017;-84
2023/10/01 01:28:32;;;;;;;21.23;12.45;;;12.70;78.40;;;;;;5055300;28;20032;-83
2023/10/01 01:31:03;;;;;;;23.13;12.35;;;12.70;78.60;;;;;;5055369;28;20512;-83
2023/10/01 01:33:32;;;;;;;21.60;11.80;;;12.60;78.60;;;;;;5055133;28;20059;-83
2023/10/01 01:36:05;;;;;;;21.63;12.48;;;12.60;78.90;;;;;;5055287;28;20017;-84
2023/10/01 01:38:36;;;;;;;21.33;13.05;;;12.50;79.10;;;;;;5054963;28;20029;-84
2023/10/01 01:41:04;;;;;;;23.40;13.52;;;12.50;79.40;;;;;;5055061;28;20027;-83
2023/10/01 01:43:31;;;;;;;20.40;12.23;;;12.50;79.20;;;;;;5054656;28;20045;-83
2023/10/01 01:46:03;;;;;;;19.77;11.82;;;12.40;79.40;;;;;;5054782;28;20060;-84
2023/10/01 01:51:02;;;;;;;19.45;12.25;;;12.40;79.60;;;;;;5054932;28;20531;-84
2023/10/01 01:53:34;;;;;;;21.25;12.30;;;12.30;79.60;;;;;;5054696;28;20032;-85
2023/10/01 01:56:04;;;;;;;18.52;12.20;;;12.30;79.80;;;;;;5054649;28;20032;-84
2023/10/01 01:58:32;;;;;;;19.52;11.50;;;12.30;80.10;;;;;;5054615;28;20032;-84
2023/10/01 02:01:01;;;;;;;20.95;11.88;;;12.20;79.90;;;;;;5054482;28;20053;-83
2023/10/01 02:03:33;;;;;;;21.77;12.35;;;12.20;80.30;;;;;;5054616;28;20481;-82
2023/10/01 02:06:00;;;;;;;20.55;11.35;;;12.10;80.40;;;;;;5038967;28;20043;-81
2023/10/01 02:08:44;;;;;;;21.75;12.75;;;12.20;80.50;;;;;;5077487;28;20017;-78
2023/10/01 02:11:09;;;;;;;22.83;11.98;;;12.10;80.40;;;;;;5077384;28;20501;-78
2023/10/01 02:13:40;;;;;;;19.88;11.57;;;12.20;80.20;;;;;;5068542;28;20027;-82
2023/10/01 02:16:35;;;;;;;22.40;12.40;;;12.20;80.20;;;;;;5060515;28;20666;-83
2023/10/01 02:19:14;;;;;;;21.00;12.82;;;12.10;80.40;;;;;;5056823;28;20390;-83
2023/10/01 02:21:47;;;;;;;20.10;12.20;;;12.20;80.50;;;;;;5036106;28;20350;-82
2023/10/01 02:24:19;;;;;;;22.75;13.50;;;12.20;80.70;;;;;;5054062;28;20036;-83
2023/10/01 02:26:48;;;;;;;21.80;13.32;;;12.10;80.90;;;;;;5054264;28;20017;-83
2023/10/01 02:29:16;;;;;;;22.10;12.60;;;12.10;80.90;;;;;;5054877;28;20532;-85
2023/10/01 02:31:56;;;;;;;22.85;12.90;;;12.00;80.90;;;;;;5055193;28;20029;-87
2023/10/01 02:34:23;;;;;;;21.20;13.00;;;12.00;81.00;;;;;;5036406;28;20025;-85
2023/10/01 02:36:49;;;;;;;25.23;13.18;;;12.00;81.10;;;;;;5053874;28;20087;-83
2023/10/01 02:39:21;;;;;;;23.45;13.02;;;12.00;80.90;;;;;;5053452;28;20488;-75
2023/10/01 02:44:38;;;;;;;23.63;13.25;;;12.00;81.10;;;;;;5053538;28;20083;-76
2023/10/01 02:47:17;;;;;;;20.63;12.48;;;12.00;81.10;;;;;;5053107;28;20044;-75
2023/10/01 02:49:50;;;;;;;25.27;14.25;;;12.00;81.10;;;;;;5053285;28;20040;-76
2023/10/01 02:52:17;;;;;;;22.90;12.50;;;12.00;80.90;;;;;;5053107;28;20021;-76
2023/10/01 02:54:44;;;;;;;21.17;11.75;;;12.00;81.00;;;;;;5053034;28;20025;-77
2023/10/01 02:57:13;;;;;;;22.65;12.43;;;12.00;81.40;;;;;;5052969;28;20033;-76
2023/10/01 03:02:30;;;;;;;23.13;12.82;;;11.80;82.10;;;;;;5053230;28;20079;-77
2023/10/01 03:05:07;;;;;;;21.55;12.32;;;11.80;81.80;;;;;;5053294;28;20017;-76
2023/10/01 03:07:38;;;;;;;23.58;13.27;;;11.80;81.70;;;;;;5053024;28;20074;-76
2023/10/01 03:10:12;;;;;;;19.10;11.93;;;11.80;81.50;;;;;;5052918;28;20025;-76
2023/10/01 03:12:40;;;;;;;24.30;13.73;;;11.70;81.80;;;;;;5052892;28;20028;-75
2023/10/01 03:17:55;;;;;;;22.42;12.95;;;11.70;82.40;;;;;;5053124;28;20040;-76
2023/10/01 03:23:07;;;;;;;24.67;13.25;;;11.70;82.60;;;;;;5052820;28;20048;-75
2023/10/01 03:25:56;;;;;;;23.98;13.55;;;11.70;82.60;;;;;;5052842;28;20049;-76
2023/10/01 03:28:26;;;;;;;24.95;13.43;;;11.70;82.40;;;;;;5052874;28;20021;-76
2023/10/01 03:31:08;;;;;;;23.80;12.77;;;11.70;82.40;;;;;;5053934;28;20450;-75
2023/10/01 03:33:42;;;;;;;22.80;12.82;;;11.60;82.70;;;;;;5038848;28;20083;-76
2023/10/01 03:36:10;;;;;;;23.15;13.85;;;11.60;82.60;;;;;;5056665;28;20021;-74
2023/10/01 03:38:38;;;;;;;19.73;12.13;;;11.70;82.30;;;;;;5056873;28;20108;-75
2023/10/01 03:41:08;;;;;;;24.27;13.00;;;11.60;82.60;;;;;;5056988;28;20021;-76
2023/10/01 03:43:35;;;;;;;20.80;12.77;;;11.60;82.60;;;;;;5056767;28;20047;-76
2023/10/01 03:46:13;;;;;;;24.77;13.52;;;11.60;83.00;;;;;;5056995;28;20067;-76
2023/10/01 03:48:58;;;;;;;21.95;12.57;;;11.40;83.20;;;;;;5056764;28;20099;-76
2023/10/01 03:51:53;;;;;;;22.95;13.02;;;11.40;83.20;;;;;;5056655;28;20014;-75
2023/10/01 03:57:17;;;;;;;21.23;12.43;;;11.50;83.40;;;;;;5026376;28;20095;-75
2023/10/01 04:00:28;;;;;;;21.55;12.35;;;11.50;82.90;;;;;;5056190;28;20029;-75
2023/10/01 04:02:47;;;;;;;22.20;13.40;;;11.50;83.00;;;;;;5053621;28;20557;-74
2023/10/01 04:05:28;;;;;;;22.38;13.20;;;11.50;83.00;;;;;;5056244;28;20025;-73
2023/10/01 04:07:54;;;;;;;23.60;12.15;;;11.40;83.00;;;;;;5056229;28;20017;-74
2023/10/01 04:10:31;;;;;;;23.80;13.70;;;11.40;83.20;;;;;;5056077;28;20029;-75
2023/10/01 04:13:12;;;;;;;23.25;12.65;;;11.40;83.20;;;;;;5056060;28;20385;-74
2023/10/01 04:15:49;;;;;;;23.92;12.75;;;11.30;83.40;;;;;;5036172;28;20112;-75
2023/10/01 04:23:32;;;;;;;23.10;12.73;;;11.40;83.60;;;;;;5036541;28;20053;-82
2023/10/01 04:26:04;;;;;;;20.52;12.52;;;11.40;83.60;;;;;;5018243;28;20354;-83
2023/10/01 04:28:38;;;;;;;25.55;13.65;;;11.40;83.60;;;;;;5018500;28;20025;-83
2023/10/01 04:31:11;;;;;;;27.30;13.63;;;11.30;83.70;;;;;;5036149;28;20355;-80
2023/10/01 04:33:42;;;;;;;22.10;12.55;;;11.30;84.10;;;;;;5036719;28;20030;-83
2023/10/01 04:36:11;;;;;;;23.65;12.55;;;11.30;84.10;;;;;;5037422;28;20079;-83
2023/10/01 04:38:38;;;;;;;25.52;12.77;;;11.30;83.90;;;;;;5039231;28;20033;-79
2023/10/01 04:41:04;;;;;;;21.33;12.82;;;11.20;83.80;;;;;;5038729;28;20018;-82
2023/10/01 04:43:41;;;;;;;21.23;12.32;;;11.30;83.80;;;;;;5042109;28;20051;-80
2023/10/01 04:46:08;;;;;;;22.63;12.73;;;11.30;83.50;;;;;;5018196;28;20029;-82
2023/10/01 04:48:36;;;;;;;23.98;13.65;;;11.30;83.20;;;;;;5035813;28;20029;-82
2023/10/01 04:51:07;;;;;;;24.77;12.82;;;11.30;83.20;;;;;;5036001;28;20014;-83
2023/10/01 04:53:33;;;;;;;24.23;12.30;;;11.30;83.50;;;;;;5035973;28;20034;-82
2023/10/01 04:56:05;;;;;;;22.17;13.05;;;11.20;83.50;;;;;;5036033;28;20108;-83
2023/10/01 04:58:32;;;;;;;24.52;13.98;;;11.20;83.50;;;;;;5035753;28;20064;-81
2023/10/01 05:00:59;;;;;;;24.63;13.70;;;11.20;83.60;;;;;;5035504;28;20061;-84
2023/10/01 05:03:48;;;;;;;22.08;12.80;;;11.20;83.60;;;;;;5035781;28;20528;-79
2023/10/01 05:06:13;;;;;;;22.95;11.60;;;11.20;83.70;;;;;;5035185;28;20029;-81
2023/10/01 05:08:42;;;;;;;20.27;12.07;;;11.20;83.40;;;;;;5035152;28;20029;-80
2023/10/01 05:11:13;;;;;;;20.75;13.00;;;11.20;83.50;;;;;;5035721;28;20029;-76
2023/10/01 05:13:47;;;;;;;19.90;12.75;;;11.20;83.80;;;;;;5035310;28;20633;-77
2023/10/01 05:16:14;;;;;;;19.10;11.77;;;11.20;83.70;;;;;;5035525;28;20022;-79
2023/10/01 05:18:45;;;;;;;21.25;11.80;;;11.20;83.80;;;;;;5035574;28;20109;-82
2023/10/01 05:21:14;;;;;;;22.67;12.55;;;11.20;83.70;;;;;;5035527;28;20024;-83
2023/10/01 05:23:41;;;;;;;19.98;12.48;;;11.20;83.50;;;;;;5035615;28;20025;-82
2023/10/01 05:26:08;;;;;;;22.17;13.38;;;11.20;83.20;;;;;;5035793;28;20013;-83
2023/10/01 05:28:36;;;;;;;21.45;12.50;;;11.30;83.40;;;;;;5035558;28;20053;-83
2023/10/01 05:31:06;;;;;;;20.95;12.57;;;11.30;83.50;;;;;;5036289;28;20022;-80
2023/10/01 05:33:35;;;;;;;22.60;12.68;;;11.30;83.50;;;;;;5035941;28;20018;-83
2023/10/01 05:36:05;;;;;;;24.20;12.93;;;11.30;83.70;;;;;;5036533;28;20425;-81
2023/10/01 05:38:33;;;;;;;22.70;12.57;;;11.30;83.40;;;;;;5037141;28;20041;-81
2023/10/01 05:41:03;;;;;;;21.52;12.05;;;11.30;82.90;;;;;;5035876;28;20550;-83
2023/10/01 05:43:37;;;;;;;25.30;12.70;;;11.30;82.90;;;;;;5019304;28;20513;-81
2023/10/01 05:46:08;;;;;;;21.60;12.63;;;11.30;82.90;;;;;;5048681;28;20104;-83
2023/10/01 05:48:39;;;;;;;23.05;12.65;;;11.30;82.70;;;;;;5048541;28;20104;-79
2023/10/01 05:51:14;;;;;;;21.67;12.73;;;11.30;82.40;;;;;;5046848;28;20458;-84
2023/10/01 05:53:41;;;;;;;22.55;13.18;;;11.30;82.50;;;;;;5041542;28;20453;-83
2023/10/01 05:56:10;;;;;;;23.10;13.48;;;11.30;83.20;;;;;;5041884;28;20021;-83
2023/10/01 05:58:37;;;;;;;22.58;13.25;;;11.30;83.20;;;;;;5045156;28;20029;-84
2023/10/01 06:01:05;;;;;;;22.17;13.35;;;11.40;83.10;;;;;;5045730;28;20021;-80
2023/10/01 06:03:32;;;;;;;25.20;13.27;;;11.40;83.00;;;;;;5046154;28;20025;-80
2023/10/01 06:05:58;;;;;;;21.30;12.55;;;11.40;82.70;;;;;;5047565;28;20014;-81
2023/10/01 06:08:44;;;;;;;26.92;13.90;;;11.50;82.40;;;;;;5042605;28;20024;-81
2023/10/01 06:11:15;;;;;;;23.88;13.27;;;11.60;82.30;;;;;;5019533;28;20042;-81
2023/10/01 06:13:49;;;;;;;22.92;13.35;;;11.50;82.50;;;;;;5018586;28;20028;-80
2023/10/01 06:16:22;;;;;;;20.02;12.30;;;11.60;82.50;;;;;;5035233;28;20017;-79
2023/10/01 06:18:58;;;;;;;24.58;13.63;;;11.60;82.60;;;;;;5035313;28;20029;-79
2023/10/01 06:21:31;;;;;;;21.58;12.40;;;11.80;82.50;;;;;;5035323;28;20014;-82
2023/10/01 06:23:59;;;;;;;22.33;13.05;;;11.90;82.60;;;;;;5035365;28;20029;-82
2023/10/01 06:26:42;;;;;;;22.38;12.90;;;12.00;82.00;;;;;;5035976;28;20056;-81
2023/10/01 06:29:11;;;;;;;21.10;12.60;;;12.10;81.30;;;;;;5016885;28;20366;-82
2023/10/01 06:31:48;;;;;;;21.55;13.65;;;12.20;81.00;;;;;;5034715;28;20031;-82
2023/10/01 06:34:15;;;;;;;22.40;12.85;;;12.20;80.70;;;;;;5034408;28;20034;-85
2023/10/01 06:36:42;;;;;;;23.17;12.50;;;12.30;80.90;;;;;;5041504;28;20020;-83
2023/10/01 06:39:19;;;;;;;23.27;12.48;;;12.40;80.80;;;;;;5035594;28;20039;-83
2023/10/01 06:41:44;;;;;;;20.80;12.32;;;12.40;80.80;;;;;;5017284;28;20033;-83
2023/10/01 06:44:10;;;;;;;20.73;12.07;;;12.60;80.70;;;;;;5034765;28;20030;-82
2023/10/01 06:46:38;;;;;;;20.40;11.90;;;12.70;80.40;;;;;;5045482;28;20062;-82
2023/10/01 06:49:04;;;;;;;22.95;12.63;;;12.80;79.80;;;;;;5041975;28;20024;-83
2023/10/01 06:51:39;;;;;;;20.25;11.95;;;12.70;79.40;;;;;;5042867;28;20436;-81
2023/10/01 06:54:05;;;;;;;21.65;11.80;;;12.80;79.30;;;;;;5060407;28;20017;-78
2023/10/01 06:56:34;;;;;;;21.80;13.05;;;12.80;79.20;;;;;;5054411;28;20028;-85
2023/10/01 07:01:42;;;;;;;20.83;12.23;;;13.00;78.90;;;;;;5053539;28;20021;-87
2023/10/01 07:04:11;;;;;;;21.95;11.43;;;13.10;78.90;;;;;;5053646;28;20054;-85
2023/10/01 07:06:37;;;;;;;20.70;12.23;;;13.20;78.50;;;;;;5053559;28;20035;-84
2023/10/01 07:09:07;;;;;;;19.77;12.02;;;13.30;78.10;;;;;;5053419;28;20158;-85
2023/10/01 07:11:37;;;;;;;20.92;11.80;;;13.40;78.00;;;;;;5036679;28;20021;-85
2023/10/01 07:14:03;;;;;;;18.83;11.05;;;13.50;77.80;;;;;;5037719;28;20021;-81
2023/10/01 07:16:35;;;;;;;21.88;11.73;;;13.60;77.90;;;;;;5056639;28;20500;-83
2023/10/01 07:19:11;;;;;;;20.13;11.65;;;13.70;77.90;;;;;;5058282;28;20043;-82
2023/10/01 07:21:39;;;;;;;19.55;11.98;;;13.80;77.60;;;;;;5041318;28;20021;-82
2023/10/01 07:24:10;;;;;;;21.40;11.63;;;14.00;77.70;;;;;;5038276;28;20111;-86
2023/10/01 07:26:40;;;;;;;19.40;11.48;;;14.10;77.50;;;;;;5037399;28;20025;-83
2023/10/01 07:29:06;;;;;;;29.38;12.35;;;14.20;77.10;;;;;;5053812;28;20062;-78
2023/10/01 07:31:35;;;;;;;18.85;10.65;;;14.50;83.10;;;;;;5052693;28;20056;-76
2023/10/01 07:34:12;;;;;;;21.75;11.75;;;14.70;80.80;;;;;;5052822;28;20470;-76
2023/10/01 07:36:43;;;;;;;19.48;11.27;;;15.00;77.90;;;;;;5053018;28;20120;-75
2023/10/01 07:39:09;;;;;;;28.50;17.52;;;15.20;76.80;;;;;;5034975;28;20029;-74
2023/10/01 07:41:38;;;;;;;32.00;20.98;;;15.40;75.70;;;;;;5035041;28;20052;-74
2023/10/01 07:44:11;;;;;;;30.20;20.35;;;15.60;74.50;;;;;;5052585;28;20078;-74
2023/10/01 07:46:37;;;;;;;32.55;20.00;;;15.80;73.90;;;;;;5052501;28;20044;-72
2023/10/01 07:49:09;;;;;;;32.13;21.75;;;15.90;73.40;;;;;;5052860;28;20442;-73
2023/10/01 07:51:44;;;;;;;37.53;23.02;;;16.10;72.70;;;;;;5052815;28;20048;-74
2023/10/01 07:54:10;;;;;;;28.45;18.88;;;16.20;72.80;;;;;;5052605;28;20021;-76
2023/10/01 07:56:48;;;;;;;24.02;13.10;;;16.30;72.60;;;;;;5052470;28;20083;-75
2023/10/01 07:59:33;;;;;;;20.02;12.52;;;16.40;73.00;;;;;;5052604;28;20017;-74
2023/10/01 08:04:59;;;;;;;22.27;12.52;;;16.50;73.20;;;;;;5052925;28;20043;-74
2023/10/01 08:07:45;;;;;;;20.13;12.25;;;16.50;72.70;;;;;;5052717;28;20021;-74
2023/10/01 08:10:17;;;;;;;;;;;16.70;72.60;;;;;;5053164;28;20017;-73
2023/10/01 08:15:31;;;;;;;20.38;11.85;;;17.10;71.00;;;;;;5052744;28;20104;-77
2023/10/01 08:18:46;;;;;;;20.63;12.30;;;17.30;71.10;;;;;;5055410;28;20036;-77
2023/10/01 08:20:57;;;;;;;19.27;11.98;;;17.60;70.40;;;;;;5042167;28;20400;-80
2023/10/01 08:23:23;;;;;;;21.85;12.50;;;17.80;69.00;;;;;;5038096;28;20473;-74
2023/10/01 08:25:54;;;;;;;23.98;12.40;;;18.10;68.40;;;;;;5056232;28;20388;-75
2023/10/01 08:30:49;;;;;;;20.92;12.23;;;18.50;66.50;;;;;;5056318;28;20033;-76
2023/10/01 08:33:18;;;;;;;18.98;11.30;;;18.70;65.90;;;;;;5056034;28;20029;-76
2023/10/01 08:35:56;;;;;;;20.02;11.68;;;18.80;65.50;;;;;;5056493;28;20021;-75
2023/10/01 08:38:23;;;;;;;21.00;12.43;;;18.80;64.50;;;;;;5040152;28;20504;-73
2023/10/01 08:40:52;;;;;;;18.95;11.35;;;18.70;66.70;;;;;;5056228;28;20418;-73
2023/10/01 08:43:21;;;;;;;20.90;11.68;;;18.90;65.90;;;;;;5056270;28;20438;-73
2023/10/01 08:45:49;;;;;;;18.35;11.48;;;19.10;65.10;;;;;;5056051;28;20021;-75
2023/10/01 08:48:17;;;;;;;20.67;12.75;;;19.40;64.40;;;;;;5055789;28;20044;-75
2023/10/01 08:50:45;;;;;;;18.80;11.77;;;19.50;63.20;;;;;;5037655;28;20490;-73
2023/10/01 08:53:12;;;;;;;17.83;11.80;;;19.60;63.20;;;;;;5055617;28;20449;-74
2023/10/01 08:58:15;;;;;;;19.73;11.95;;;19.80;62.80;;;;;;5055854;28;20033;-74
2023/10/01 09:00:48;;;;;;;19.60;11.35;;;19.70;62.20;;;;;;5037617;28;20027;-74
2023/10/01 09:03:26;;;;;;;19.02;11.80;;;19.50;62.40;;;;;;5055492;28;20107;-74
2023/10/01 09:06:03;;;;;;;20.70;12.07;;;19.70;63.10;;;;;;5037525;28;20115;-77
2023/10/01 09:08:45;;;;;;;19.95;12.35;;;19.80;62.80;;;;;;5037307;28;20555;-77
2023/10/01 09:11:13;;;;;;;22.00;12.88;;;20.10;63.20;;;;;;5037561;28;20021;-75
2023/10/01 09:13:45;;;;;;;18.50;11.32;;;20.30;60.90;;;;;;5037632;28;20405;-76
2023/10/01 09:16:11;;;;;;;19.90;11.98;;;20.30;59.70;;;;;;5037462;28;20474;-77
2023/10/01 09:19:03;;;;;;;19.58;11.45;;;20.40;59.50;;;;;;5036512;28;20064;-78
2023/10/01 09:21:38;;;;;;;18.90;11.05;;;20.60;58.40;;;;;;5037706;28;20118;-78
2023/10/01 09:24:33;;;;;;;;;;;20.70;57.70;;;;;;5037966;28;20024;-81
2023/10/01 09:27:09;;;;;;;21.38;11.63;;;20.80;56.00;;;;;;5055065;28;19993;-80
2023/10/01 09:29:46;;;;;;;19.00;11.43;;;21.00;55.30;;;;;;5030058;28;20417;-79
2023/10/01 09:32:13;;;;;;;19.15;11.27;;;21.20;55.00;;;;;;5037683;28;20028;-78
2023/10/01 09:34:47;;;;;;;20.70;12.45;;;21.50;54.50;;;;;;5055550;28;20159;-79
2023/10/01 09:37:30;;;;;;;19.63;11.75;;;21.50;52.40;;;;;;5036520;28;20132;-80
2023/10/01 09:40:03;;;;;;;17.75;10.90;;;21.50;51.30;;;;;;5030300;28;20032;-80
2023/10/01 09:42:44;;;;;;;17.30;11.13;;;21.30;48.70;;;;;;5025006;28;20367;-79
2023/10/01 09:45:26;;;;;;;19.73;11.07;;;21.40;50.50;;;;;;5029350;28;20028;-79
2023/10/01 09:48:04;;;;;;;18.60;11.25;;;21.50;50.20;;;;;;5029032;28;20060;-78
2023/10/01 09:50:39;;;;;;;22.88;11.73;;;21.80;50.30;;;;;;5001866;28;20040;-79
2023/10/01 09:53:13;;;;;;;17.73;10.75;;;22.10;49.30;;;;;;5019647;28;20033;-78
2023/10/01 09:55:47;;;;;;;19.80;11.50;;;22.30;49.50;;;;;;5022095;28;20179;-76
2023/10/01 09:58:24;;;;;;;18.23;10.25;;;22.50;48.70;;;;;;5017160;28;20033;-76
2023/10/01 10:00:53;;;;;;;21.45;12.27;;;22.60;47.60;;;;;;5034906;28;20052;-82
2023/10/01 10:03:20;;;;;;;16.35;10.07;;;22.80;47.50;;;;;;5036854;28;20396;-78
2023/10/01 10:05:51;;;;;;;18.90;10.35;;;22.90;48.10;;;;;;5017897;28;20017;-78
2023/10/01 10:08:20;;;;;;;21.95;14.85;;;23.20;47.50;;;;;;5018050;28;20466;-77
2023/10/01 10:10:55;;;;;;;19.67;11.75;;;23.40;46.80;;;;;;5035765;28;20037;-79
2023/10/01 10:13:36;;;;;;;27.52;16.42;;;23.10;46.60;;;;;;5036820;28;20013;-76
2023/10/01 10:19:05;;;;;;;20.77;11.93;;;23.30;47.20;;;;;;5034807;28;20095;-79
2023/10/01 10:24:30;;;;;;;15.82;10.10;;;23.60;46.00;;;;;;5034340;28;20053;-77
2023/10/01 10:26:57;;;;;;;17.50;10.90;;;23.70;45.60;;;;;;5032919;28;20025;-80
2023/10/01 10:29:23;;;;;;;18.73;11.02;;;23.80;45.20;;;;;;5033262;28;20112;-76
2023/10/01 10:32:09;;;;;;;18.55;10.82;;;24.10;45.20;;;;;;5032749;28;20033;-77
2023/10/01 10:34:37;;;;;;;17.52;10.48;;;24.40;45.50;;;;;;5016075;28;20051;-79
2023/10/01 10:37:06;;;;;;;20.55;11.50;;;24.60;45.20;;;;;;5015876;28;20493;-78
2023/10/01 10:39:50;;;;;;;20.90;11.13;;;24.60;43.00;;;;;;4997470;28;20091;-79
2023/10/01 10:42:29;;;;;;;17.05;10.07;;;24.70;43.30;;;;;;5038323;28;20017;-76
2023/10/01 10:45:23;;;;;;;16.55;10.80;;;24.90;42.60;;;;;;5033965;28;20060;-79
2023/10/01 10:47:59;;;;;;;17.30;10.23;;;25.20;42.60;;;;;;5047875;28;20059;-77
2023/10/01 10:50:44;;;;;;;17.85;10.93;;;25.20;41.80;;;;;;5035787;28;20386;-78
2023/10/01 10:53:20;;;;;;;20.38;11.23;;;25.00;43.00;;;;;;5053790;28;20029;-79
2023/10/01 10:56:07;;;;;;;19.38;10.90;;;25.00;43.40;;;;;;5050568;28;20477;-78
2023/10/01 10:58:39;;;;;;;18.45;10.43;;;25.10;43.50;;;;;;5035611;28;20037;-76
2023/10/01 11:01:24;;;;;;;16.85;10.43;;;25.10;43.40;;;;;;5035794;28;20044;-76
2023/10/01 11:03:57;;;;;;;18.08;11.15;;;25.30;41.80;;;;;;5035721;28;20033;-79
2023/10/01 11:06:24;;;;;;;19.73;10.90;;;25.30;41.80;;;;;;5035494;28;20033;-77
2023/10/01 11:08:54;;;;;;;20.92;11.32;;;25.50;41.00;;;;;;5032673;28;20473;-77
2023/10/01 11:11:29;;;;;;;17.80;10.70;;;25.70;41.60;;;;;;5024074;28;20030;-76
2023/10/01 11:14:02;;;;;;;18.10;10.20;;;25.90;40.90;;;;;;5028492;28;20487;-77
2023/10/01 11:16:33;;;;;;;18.58;11.00;;;26.30;40.50;;;;;;5021050;28;20049;-80
2023/10/01 11:19:20;;;;;;;17.33;10.68;;;26.50;40.60;;;;;;5015506;28;20159;-76
2023/10/01 11:21:59;;;;;;;18.92;11.00;;;26.40;39.80;;;;;;5035993;28;20029;-78
2023/10/01 11:24:35;;;;;;;41.50;15.65;;;26.30;38.10;;;;;;5022963;28;20378;-81
2023/10/01 11:30:17;;;;;;;38.03;14.98;;;26.50;39.00;;;;;;5031494;28;20084;-80
2023/10/01 11:33:01;;;;;;;19.35;11.27;;;26.60;39.70;;;;;;5020321;28;20056;-75
2023/10/01 11:35:35;;;;;;;16.77;10.00;;;26.80;39.90;;;;;;5032684;28;20020;-77
2023/10/01 11:38:13;;;;;;;35.70;12.93;;;26.70;39.50;;;;;;5023471;28;20037;-77
2023/10/01 11:43:27;;;;;;;20.75;11.73;;;27.20;38.50;;;;;;5037760;28;20027;-81
2023/10/01 11:46:19;;;;;;;16.77;10.38;;;27.30;37.20;;;;;;5022014;28;20022;-80
2023/10/01 11:49:14;;;;;;;18.88;10.18;;;27.30;37.90;;;;;;5033880;28;20037;-78
2023/10/01 11:51:54;;;;;;;16.73;10.82;;;26.80;38.10;;;;;;5032492;28;20102;-77
2023/10/01 11:54:43;;;;;;;16.48;9.77;;;27.00;38.50;;;;;;5028831;28;20036;-75
2023/10/01 11:57:25;;;;;;;15.50;10.15;;;27.30;37.50;;;;;;5028551;28;20449;-77
2023/10/01 11:59:59;;;;;;;14.68;9.40;;;27.30;36.20;;;;;;5027767;28;20105;-77
2023/10/01 12:02:32;;;;;;;16.50;10.20;;;27.50;36.10;;;;;;5036870;28;20484;-77
2023/10/01 12:05:03;;;;;;;29.90;20.80;;;27.70;36.80;;;;;;5024788;28;20111;-79
2023/10/01 12:07:40;;;;;;;21.70;13.38;;;28.00;37.20;;;;;;5030293;28;20017;-78
2023/10/01 12:10:07;;;;;;;16.45;10.23;;;28.10;36.10;;;;;;5014232;28;20025;-76
2023/10/01 12:12:37;;;;;;;14.75;9.88;;;28.10;36.50;;;;;;5024142;28;20389;-78
2023/10/01 12:17:52;;;;;;;16.15;9.70;;;28.60;34.90;;;;;;5047844;28;20036;-78
2023/10/01 12:20:22;;;;;;;16.25;9.68;;;28.50;35.80;;;;;;5024319;28;20061;-78
2023/10/01 12:23:10;;;;;;;16.20;10.25;;;28.60;35.30;;;;;;5024676;28;20106;-76
2023/10/01 12:25:44;;;;;;;15.70;10.40;;;28.60;34.60;;;;;;5024216;28;20526;-78
2023/10/01 12:28:15;;;;;;;15.07;9.77;;;28.90;35.20;;;;;;5021000;28;20033;-79
2023/10/01 12:30:41;;;;;;;16.52;9.50;;;29.10;34.30;;;;;;5023481;28;20041;-80
2023/10/01 12:33:07;;;;;;;17.20;10.82;;;29.30;34.00;;;;;;5020499;28;20021;-79
2023/10/01 12:35:34;;;;;;;15.82;9.80;;;29.30;33.50;;;;;;5038623;28;20045;-80
2023/10/01 12:38:46;;;;;;;15.20;9.57;;;29.20;33.00;;;;;;5019100;28;20498;-79
2023/10/01 12:40:53;;;;;;;15.68;10.02;;;29.20;33.00;;;;;;5023370;28;20398;-78
2023/10/01 12:43:39;;;;;;;17.08;9.73;;;29.20;34.50;;;;;;5035596;28;20030;-81
2023/10/01 12:46:09;;;;;;;16.40;8.48;;;29.30;33.60;;;;;;5018781;28;20039;-80
2023/10/01 12:48:37;;;;;;;14.82;9.00;;;29.60;33.80;;;;;;5056548;28;20421;-81
2023/10/01 12:51:04;;;;;;;15.88;9.68;;;29.80;33.00;;;;;;5039496;28;20027;-82
2023/10/01 12:53:47;;;;;;;16.42;9.95;;;29.80;32.40;;;;;;5038854;28;20124;-79
2023/10/01 12:56:14;;;;;;;14.52;9.45;;;29.30;33.40;;;;;;5055824;28;20057;-79
2023/10/01 12:58:41;;;;;;;16.55;9.48;;;29.50;33.60;;;;;;5036198;28;20041;-78
2023/10/01 13:01:07;;;;;;;13.80;8.90;;;29.70;32.70;;;;;;5036854;28;20116;-78
2023/10/01 13:03:42;;;;;;;15.48;8.73;;;29.70;32.70;;;;;;5036675;28;20021;-80
2023/10/01 13:06:12;;;;;;;;;;;30.00;33.10;;;;;;5037571;28;20021;-80
2023/10/01 13:08:41;;;;;;;14.65;9.32;;;30.20;31.70;;;;;;5036456;28;19940;-79
2023/10/01 13:11:07;;;;;;;15.07;9.20;;;30.40;32.00;;;;;;5036972;28;20052;-76
2023/10/01 13:13:35;;;;;;;15.30;9.90;;;30.50;31.40;;;;;;5037058;28;20057;-77
2023/10/01 13:16:01;;;;;;;15.27;9.57;;;30.50;31.20;;;;;;5036826;28;20029;-76
2023/10/01 13:18:31;;;;;;;18.88;10.77;;;30.60;31.40;;;;;;5053672;28;20041;-77
2023/10/01 13:23:28;;;;;;;14.90;9.25;;;30.60;30.30;;;;;;5055032;28;20025;-74
2023/10/01 13:26:09;;;;;;;15.50;9.63;;;30.60;30.00;;;;;;5037340;28;20108;-76
2023/10/01 13:28:50;;;;;;;16.40;9.80;;;30.50;30.00;;;;;;5037277;28;20029;-76
2023/10/01 13:37:42;;;;;;;14.98;9.27;;;30.40;30.70;;;;;;5055120;28;20032;-76
2023/10/01 14:09:50;;;;;;;14.67;8.83;;;31.60;28.00;;;;;;5024514;28;20033;-76
2023/10/01 14:15:20;;;;;;;15.20;9.32;;;31.70;28.00;;;;;;5033709;28;20068;-76
2023/10/01 14:17:52;;;;;;;13.68;9.32;;;31.80;28.00;;;;;;5016606;28;20091;-76
2023/10/01 14:20:37;;;;;;;14.90;9.20;;;31.80;27.90;;;;;;5016795;28;20021;-76
2023/10/01 14:23:26;;;;;;;13.55;9.15;;;31.80;27.30;;;;;;5019604;28;20116;-76
2023/10/01 14:25:53;;;;;;;13.70;9.27;;;31.90;27.60;;;;;;5016063;28;20402;-77